sensor_id;sensor_type;location;lat;lon;timestamp;P1;durP1;ratioP1;P2;durP2;ratioP2
52878;SDS011;38747;53.140;6.498;2023-01-13T00:01:16;23.50;;;2.40;;
52878;SDS011;38747;53.140;6.498;2023-01-13T00:03:43;16.92;;;2.40;;
52878;SDS011;38747;53.140;6.498;2023-01-13T00:06:20;24.25;;;2.88;;
52878;SDS011;38747;53.140;6.498;2023-01-13T00:08:49;15.75;;;2.35;;
52878;SDS011;38747;53.140;6.498;2023-01-13T00:11:17;21.88;;;2.60;;
52878;SDS011;38747;53.140;6.498;2023-01-13T00:13:44;24.67;;;3.13;;
52878;SDS011;38747;53.140;6.498;2023-01-13T00:16:10;22.35;;;3.00;;
52878;SDS011;38747;53.140;6.498;2023-01-13T00:18:39;25.27;;;3.13;;
52878;SDS011;38747;53.140;6.498;2023-01-13T00:21:12;17.10;;;2.80;;
52878;SDS011;38747;53.140;6.498;2023-01-13T00:23:46;26.20;;;2.95;;
52878;SDS011;38747;53.140;6.498;2023-01-13T00:26:22;27.10;;;4.03;;
52878;SDS011;38747;53.140;6.498;2023-01-13T00:28:50;23.58;;;3.05;;
52878;SDS011;38747;53.140;6.498;2023-01-13T00:31:19;23.07;;;2.90;;
52878;SDS011;38747;53.140;6.498;2023-01-13T00:33:45;29.77;;;3.70;;
52878;SDS011;38747;53.140;6.498;2023-01-13T00:36:15;19.23;;;3.15;;
52878;SDS011;38747;53.140;6.498;2023-01-13T00:38:43;24.37;;;3.20;;
52878;SDS011;38747;53.140;6.498;2023-01-13T00:41:10;26.65;;;3.20;;
52878;SDS011;38747;53.140;6.498;2023-01-13T00:43:37;18.60;;;2.80;;
52878;SDS011;38747;53.140;6.498;2023-01-13T00:46:05;22.25;;;3.42;;
52878;SDS011;38747;53.140;6.498;2023-01-13T00:48:32;23.17;;;3.22;;
52878;SDS011;38747;53.140;6.498;2023-01-13T00:50:59;25.37;;;3.13;;
52878;SDS011;38747;53.140;6.498;2023-01-13T00:53:27;21.98;;;3.33;;
52878;SDS011;38747;53.140;6.498;2023-01-13T00:56:03;22.70;;;3.30;;
52878;SDS011;38747;53.140;6.498;2023-01-13T00:58:32;23.52;;;3.40;;
52878;SDS011;38747;53.140;6.498;2023-01-13T01:01:02;26.80;;;3.08;;
52878;SDS011;38747;53.140;6.498;2023-01-13T01:03:29;18.43;;;2.73;;
52878;SDS011;38747;53.140;6.498;2023-01-13T01:05:55;25.92;;;3.28;;
52878;SDS011;38747;53.140;6.498;2023-01-13T01:08:27;27.83;;;3.50;;
52878;SDS011;38747;53.140;6.498;2023-01-13T01:10:59;29.33;;;3.30;;
52878;SDS011;38747;53.140;6.498;2023-01-13T01:13:30;21.23;;;3.05;;
52878;SDS011;38747;53.140;6.498;2023-01-13T01:15:56;22.58;;;2.80;;
52878;SDS011;38747;53.140;6.498;2023-01-13T01:18:21;24.53;;;3.07;;
52878;SDS011;38747;53.140;6.498;2023-01-13T01:20:48;20.50;;;3.08;;
52878;SDS011;38747;53.140;6.498;2023-01-13T01:23:13;26.80;;;2.50;;
52878;SDS011;38747;53.140;6.498;2023-01-13T01:25:39;27.38;;;3.50;;
52878;SDS011;38747;53.140;6.498;2023-01-13T01:28:04;29.73;;;3.70;;
52878;SDS011;38747;53.140;6.498;2023-01-13T01:30:30;23.70;;;2.90;;
52878;SDS011;38747;53.140;6.498;2023-01-13T01:32:56;26.43;;;3.20;;
52878;SDS011;38747;53.140;6.498;2023-01-13T01:35:22;25.80;;;3.35;;
52878;SDS011;38747;53.140;6.498;2023-01-13T01:37:48;24.63;;;3.20;;
52878;SDS011;38747;53.140;6.498;2023-01-13T01:40:14;29.77;;;3.53;;
52878;SDS011;38747;53.140;6.498;2023-01-13T01:42:40;23.13;;;2.97;;
52878;SDS011;38747;53.140;6.498;2023-01-13T01:45:24;31.58;;;3.80;;
52878;SDS011;38747;53.140;6.498;2023-01-13T01:47:53;26.43;;;2.53;;
52878;SDS011;38747;53.140;6.498;2023-01-13T01:50:22;23.92;;;3.30;;
52878;SDS011;38747;53.140;6.498;2023-01-13T01:52:49;26.52;;;3.63;;
52878;SDS011;38747;53.140;6.498;2023-01-13T01:55:23;31.17;;;3.88;;
52878;SDS011;38747;53.140;6.498;2023-01-13T01:57:57;23.13;;;2.97;;
52878;SDS011;38747;53.140;6.498;2023-01-13T02:00:30;25.08;;;2.78;;
52878;SDS011;38747;53.140;6.498;2023-01-13T02:02:56;29.77;;;3.08;;
52878;SDS011;38747;53.140;6.498;2023-01-13T02:05:24;20.23;;;3.15;;
52878;SDS011;38747;53.140;6.498;2023-01-13T02:07:50;26.30;;;3.53;;
52878;SDS011;38747;53.140;6.498;2023-01-13T02:10:19;26.05;;;3.50;;
52878;SDS011;38747;53.140;6.498;2023-01-13T02:12:46;28.45;;;3.13;;
52878;SDS011;38747;53.140;6.498;2023-01-13T02:15:14;27.73;;;3.25;;
52878;SDS011;38747;53.140;6.498;2023-01-13T02:20:54;20.10;;;2.43;;
52878;SDS011;38747;53.140;6.498;2023-01-13T02:27:02;22.90;;;2.67;;
52878;SDS011;38747;53.140;6.498;2023-01-13T02:38:03;27.35;;;3.30;;
52878;SDS011;38747;53.140;6.498;2023-01-13T02:40:33;26.53;;;3.53;;
52878;SDS011;38747;53.140;6.498;2023-01-13T02:43:12;26.00;;;2.80;;
52878;SDS011;38747;53.140;6.498;2023-01-13T02:46:17;22.52;;;2.85;;
52878;SDS011;38747;53.140;6.498;2023-01-13T02:48:49;22.08;;;2.90;;
52878;SDS011;38747;53.140;6.498;2023-01-13T02:51:18;23.23;;;3.45;;
52878;SDS011;38747;53.140;6.498;2023-01-13T02:53:49;22.73;;;2.63;;
52878;SDS011;38747;53.140;6.498;2023-01-13T02:56:21;22.30;;;2.92;;
52878;SDS011;38747;53.140;6.498;2023-01-13T02:58:48;27.20;;;3.38;;
52878;SDS011;38747;53.140;6.498;2023-01-13T03:01:15;20.27;;;2.72;;
52878;SDS011;38747;53.140;6.498;2023-01-13T03:03:41;19.38;;;3.22;;
52878;SDS011;38747;53.140;6.498;2023-01-13T03:08:47;24.27;;;2.90;;
52878;SDS011;38747;53.140;6.498;2023-01-13T03:11:16;26.70;;;3.30;;
52878;SDS011;38747;53.140;6.498;2023-01-13T03:19:35;21.43;;;2.90;;
52878;SDS011;38747;53.140;6.498;2023-01-13T03:22:30;22.38;;;3.00;;
52878;SDS011;38747;53.140;6.498;2023-01-13T03:25:06;17.83;;;2.38;;
52878;SDS011;38747;53.140;6.498;2023-01-13T03:30:09;23.42;;;3.22;;
52878;SDS011;38747;53.140;6.498;2023-01-13T03:32:45;25.20;;;2.83;;
52878;SDS011;38747;53.140;6.498;2023-01-13T03:35:36;19.85;;;2.80;;
52878;SDS011;38747;53.140;6.498;2023-01-13T03:40:54;21.20;;;2.90;;
52878;SDS011;38747;53.140;6.498;2023-01-13T03:43:33;24.65;;;2.85;;
52878;SDS011;38747;53.140;6.498;2023-01-13T03:46:43;23.37;;;2.30;;
52878;SDS011;38747;53.140;6.498;2023-01-13T03:49:12;24.00;;;2.30;;
52878;SDS011;38747;53.140;6.498;2023-01-13T03:51:45;21.25;;;2.97;;
52878;SDS011;38747;53.140;6.498;2023-01-13T03:54:17;23.52;;;2.60;;
52878;SDS011;38747;53.140;6.498;2023-01-13T03:56:46;17.42;;;2.65;;
52878;SDS011;38747;53.140;6.498;2023-01-13T03:59:16;19.93;;;2.23;;
52878;SDS011;38747;53.140;6.498;2023-01-13T04:02:02;23.00;;;2.85;;
52878;SDS011;38747;53.140;6.498;2023-01-13T04:05:02;22.80;;;2.60;;
52878;SDS011;38747;53.140;6.498;2023-01-13T04:07:44;21.92;;;3.40;;
52878;SDS011;38747;53.140;6.498;2023-01-13T04:10:12;24.77;;;2.83;;
52878;SDS011;38747;53.140;6.498;2023-01-13T04:15:30;26.05;;;3.30;;
52878;SDS011;38747;53.140;6.498;2023-01-13T04:20:40;21.50;;;3.08;;
52878;SDS011;38747;53.140;6.498;2023-01-13T04:23:07;23.45;;;3.30;;
52878;SDS011;38747;53.140;6.498;2023-01-13T04:25:34;20.93;;;2.67;;
52878;SDS011;38747;53.140;6.498;2023-01-13T04:28:00;22.33;;;2.67;;
52878;SDS011;38747;53.140;6.498;2023-01-13T04:30:26;25.50;;;3.10;;
52878;SDS011;38747;53.140;6.498;2023-01-13T04:32:52;22.63;;;3.17;;
52878;SDS011;38747;53.140;6.498;2023-01-13T04:35:17;27.50;;;3.40;;
52878;SDS011;38747;53.140;6.498;2023-01-13T04:37:43;27.80;;;3.70;;
52878;SDS011;38747;53.140;6.498;2023-01-13T04:40:09;18.65;;;2.85;;
52878;SDS011;38747;53.140;6.498;2023-01-13T04:42:35;17.55;;;2.40;;
52878;SDS011;38747;53.140;6.498;2023-01-13T04:45:00;21.80;;;3.03;;
52878;SDS011;38747;53.140;6.498;2023-01-13T04:47:26;20.77;;;2.50;;
52878;SDS011;38747;53.140;6.498;2023-01-13T04:49:51;22.60;;;3.37;;
52878;SDS011;38747;53.140;6.498;2023-01-13T04:52:17;26.60;;;3.27;;
52878;SDS011;38747;53.140;6.498;2023-01-13T04:54:43;21.75;;;2.65;;
52878;SDS011;38747;53.140;6.498;2023-01-13T04:57:08;22.43;;;2.97;;
52878;SDS011;38747;53.140;6.498;2023-01-13T04:59:34;29.92;;;3.63;;
52878;SDS011;38747;53.140;6.498;2023-01-13T05:01:59;36.30;;;3.23;;
52878;SDS011;38747;53.140;6.498;2023-01-13T05:04:25;26.27;;;4.07;;
52878;SDS011;38747;53.140;6.498;2023-01-13T05:06:51;20.30;;;2.77;;
52878;SDS011;38747;53.140;6.498;2023-01-13T05:09:17;22.73;;;3.40;;
52878;SDS011;38747;53.140;6.498;2023-01-13T05:11:42;26.90;;;3.23;;
52878;SDS011;38747;53.140;6.498;2023-01-13T05:14:26;23.92;;;2.95;;
52878;SDS011;38747;53.140;6.498;2023-01-13T05:17:20;18.83;;;2.60;;
52878;SDS011;38747;53.140;6.498;2023-01-13T05:19:48;20.30;;;3.05;;
52878;SDS011;38747;53.140;6.498;2023-01-13T05:22:14;21.10;;;2.40;;
52878;SDS011;38747;53.140;6.498;2023-01-13T05:24:58;22.60;;;2.60;;
52878;SDS011;38747;53.140;6.498;2023-01-13T05:27:43;22.02;;;3.10;;
52878;SDS011;38747;53.140;6.498;2023-01-13T05:30:09;22.83;;;2.97;;
52878;SDS011;38747;53.140;6.498;2023-01-13T05:32:35;21.85;;;2.53;;
52878;SDS011;38747;53.140;6.498;2023-01-13T05:35:00;22.73;;;3.37;;
52878;SDS011;38747;53.140;6.498;2023-01-13T05:37:26;19.47;;;2.53;;
52878;SDS011;38747;53.140;6.498;2023-01-13T05:39:52;20.05;;;1.90;;
52878;SDS011;38747;53.140;6.498;2023-01-13T05:42:36;19.50;;;2.60;;
52878;SDS011;38747;53.140;6.498;2023-01-13T05:45:20;24.50;;;2.40;;
52878;SDS011;38747;53.140;6.498;2023-01-13T05:47:46;25.02;;;2.58;;
52878;SDS011;38747;53.140;6.498;2023-01-13T05:50:12;18.37;;;2.33;;
52878;SDS011;38747;53.140;6.498;2023-01-13T05:52:38;18.85;;;2.30;;
52878;SDS011;38747;53.140;6.498;2023-01-13T05:55:03;25.93;;;2.93;;
52878;SDS011;38747;53.140;6.498;2023-01-13T05:57:30;26.88;;;3.17;;
52878;SDS011;38747;53.140;6.498;2023-01-13T05:59:55;21.50;;;2.83;;
52878;SDS011;38747;53.140;6.498;2023-01-13T06:02:21;21.13;;;2.23;;
52878;SDS011;38747;53.140;6.498;2023-01-13T06:04:46;18.83;;;2.20;;
52878;SDS011;38747;53.140;6.498;2023-01-13T06:07:12;21.90;;;2.67;;
52878;SDS011;38747;53.140;6.498;2023-01-13T06:09:38;23.35;;;2.88;;
52878;SDS011;38747;53.140;6.498;2023-01-13T06:12:04;24.27;;;2.60;;
52878;SDS011;38747;53.140;6.498;2023-01-13T06:14:29;19.00;;;2.20;;
52878;SDS011;38747;53.140;6.498;2023-01-13T06:17:11;23.70;;;2.63;;
52878;SDS011;38747;53.140;6.498;2023-01-13T06:19:38;23.53;;;3.20;;
52878;SDS011;38747;53.140;6.498;2023-01-13T06:22:38;17.95;;;2.05;;
52878;SDS011;38747;53.140;6.498;2023-01-13T06:24:56;16.67;;;2.70;;
52878;SDS011;38747;53.140;6.498;2023-01-13T06:27:23;16.13;;;2.28;;
52878;SDS011;38747;53.140;6.498;2023-01-13T06:29:49;21.43;;;2.37;;
52878;SDS011;38747;53.140;6.498;2023-01-13T06:32:18;16.80;;;2.40;;
52878;SDS011;38747;53.140;6.498;2023-01-13T06:34:58;15.95;;;1.90;;
52878;SDS011;38747;53.140;6.498;2023-01-13T06:37:27;17.65;;;2.30;;
52878;SDS011;38747;53.140;6.498;2023-01-13T06:39:54;17.02;;;2.22;;
52878;SDS011;38747;53.140;6.498;2023-01-13T06:42:24;18.07;;;2.60;;
52878;SDS011;38747;53.140;6.498;2023-01-13T06:45:10;15.90;;;2.05;;
52878;SDS011;38747;53.140;6.498;2023-01-13T06:47:36;24.38;;;2.28;;
52878;SDS011;38747;53.140;6.498;2023-01-13T06:50:02;17.37;;;2.00;;
52878;SDS011;38747;53.140;6.498;2023-01-13T06:52:28;19.70;;;2.30;;
52878;SDS011;38747;53.140;6.498;2023-01-13T06:54:55;12.80;;;1.75;;
52878;SDS011;38747;53.140;6.498;2023-01-13T06:57:21;16.23;;;2.63;;
52878;SDS011;38747;53.140;6.498;2023-01-13T06:59:47;13.07;;;1.53;;
52878;SDS011;38747;53.140;6.498;2023-01-13T07:02:12;16.75;;;2.10;;
52878;SDS011;38747;53.140;6.498;2023-01-13T07:04:38;9.77;;;2.00;;
52878;SDS011;38747;53.140;6.498;2023-01-13T07:07:04;17.45;;;2.30;;
52878;SDS011;38747;53.140;6.498;2023-01-13T07:09:29;19.33;;;2.70;;
52878;SDS011;38747;53.140;6.498;2023-01-13T07:11:55;14.50;;;2.45;;
52878;SDS011;38747;53.140;6.498;2023-01-13T07:14:20;16.20;;;2.00;;
52878;SDS011;38747;53.140;6.498;2023-01-13T07:17:04;18.73;;;2.17;;
52878;SDS011;38747;53.140;6.498;2023-01-13T07:19:30;15.70;;;1.77;;
52878;SDS011;38747;53.140;6.498;2023-01-13T07:21:56;17.27;;;2.10;;
52878;SDS011;38747;53.140;6.498;2023-01-13T07:24:21;12.40;;;1.80;;
52878;SDS011;38747;53.140;6.498;2023-01-13T07:26:47;13.93;;;1.67;;
52878;SDS011;38747;53.140;6.498;2023-01-13T07:29:14;16.03;;;2.00;;
52878;SDS011;38747;53.140;6.498;2023-01-13T07:31:40;14.98;;;1.92;;
52878;SDS011;38747;53.140;6.498;2023-01-13T07:34:05;22.33;;;2.67;;
52878;SDS011;38747;53.140;6.498;2023-01-13T07:36:31;20.02;;;2.00;;
52878;SDS011;38747;53.140;6.498;2023-01-13T07:38:57;14.27;;;1.90;;
52878;SDS011;38747;53.140;6.498;2023-01-13T07:41:23;15.40;;;1.70;;
52878;SDS011;38747;53.140;6.498;2023-01-13T07:44:07;18.60;;;2.58;;
52878;SDS011;38747;53.140;6.498;2023-01-13T07:46:35;17.98;;;1.88;;
52878;SDS011;38747;53.140;6.498;2023-01-13T07:49:01;13.30;;;2.07;;
52878;SDS011;38747;53.140;6.498;2023-01-13T07:51:27;17.25;;;2.30;;
52878;SDS011;38747;53.140;6.498;2023-01-13T07:53:52;19.27;;;2.17;;
52878;SDS011;38747;53.140;6.498;2023-01-13T07:56:18;18.43;;;2.07;;
52878;SDS011;38747;53.140;6.498;2023-01-13T07:58:44;16.13;;;2.10;;
52878;SDS011;38747;53.140;6.498;2023-01-13T08:01:14;18.88;;;1.73;;
52878;SDS011;38747;53.140;6.498;2023-01-13T08:03:41;18.85;;;2.58;;
52878;SDS011;38747;53.140;6.498;2023-01-13T08:06:07;20.07;;;2.50;;
52878;SDS011;38747;53.140;6.498;2023-01-13T08:08:35;18.40;;;2.30;;
52878;SDS011;38747;53.140;6.498;2023-01-13T08:11:01;19.30;;;2.30;;
52878;SDS011;38747;53.140;6.498;2023-01-13T08:13:28;20.17;;;2.47;;
52878;SDS011;38747;53.140;6.498;2023-01-13T08:16:01;19.80;;;2.30;;
52878;SDS011;38747;53.140;6.498;2023-01-13T08:18:29;20.15;;;2.10;;
52878;SDS011;38747;53.140;6.498;2023-01-13T08:20:59;20.55;;;2.70;;
52878;SDS011;38747;53.140;6.498;2023-01-13T08:23:27;20.55;;;2.42;;
52878;SDS011;38747;53.140;6.498;2023-01-13T08:25:52;19.20;;;2.17;;
52878;SDS011;38747;53.140;6.498;2023-01-13T08:28:18;21.50;;;2.13;;
52878;SDS011;38747;53.140;6.498;2023-01-13T08:30:44;24.73;;;2.90;;
52878;SDS011;38747;53.140;6.498;2023-01-13T08:33:10;17.88;;;2.38;;
52878;SDS011;38747;53.140;6.498;2023-01-13T08:35:39;20.92;;;2.10;;
52878;SDS011;38747;53.140;6.498;2023-01-13T08:38:06;19.23;;;2.33;;
52878;SDS011;38747;53.140;6.498;2023-01-13T08:40:32;21.25;;;2.25;;
52878;SDS011;38747;53.140;6.498;2023-01-13T08:42:58;15.13;;;1.90;;
52878;SDS011;38747;53.140;6.498;2023-01-13T08:45:25;24.95;;;2.65;;
52878;SDS011;38747;53.140;6.498;2023-01-13T08:47:50;22.63;;;2.37;;
52878;SDS011;38747;53.140;6.498;2023-01-13T08:50:16;12.88;;;1.77;;
52878;SDS011;38747;53.140;6.498;2023-01-13T08:52:43;22.90;;;3.37;;
52878;SDS011;38747;53.140;6.498;2023-01-13T08:55:09;19.52;;;2.38;;
52878;SDS011;38747;53.140;6.498;2023-01-13T08:57:35;18.63;;;2.28;;
52878;SDS011;38747;53.140;6.498;2023-01-13T09:00:01;18.50;;;2.35;;
52878;SDS011;38747;53.140;6.498;2023-01-13T09:02:29;18.37;;;2.60;;
52878;SDS011;38747;53.140;6.498;2023-01-13T09:04:55;19.27;;;2.45;;
52878;SDS011;38747;53.140;6.498;2023-01-13T09:07:21;20.83;;;2.73;;
52878;SDS011;38747;53.140;6.498;2023-01-13T09:09:47;26.98;;;2.83;;
52878;SDS011;38747;53.140;6.498;2023-01-13T09:12:13;20.73;;;2.23;;
52878;SDS011;38747;53.140;6.498;2023-01-13T09:14:58;23.48;;;2.65;;
52878;SDS011;38747;53.140;6.498;2023-01-13T09:17:25;18.02;;;2.97;;
52878;SDS011;38747;53.140;6.498;2023-01-13T09:19:51;24.80;;;2.50;;
52878;SDS011;38747;53.140;6.498;2023-01-13T09:22:17;24.40;;;2.60;;
52878;SDS011;38747;53.140;6.498;2023-01-13T09:24:44;20.57;;;1.90;;
52878;SDS011;38747;53.140;6.498;2023-01-13T09:27:11;16.77;;;2.00;;
52878;SDS011;38747;53.140;6.498;2023-01-13T09:29:38;12.45;;;2.03;;
52878;SDS011;38747;53.140;6.498;2023-01-13T09:32:04;17.00;;;2.17;;
52878;SDS011;38747;53.140;6.498;2023-01-13T09:34:31;17.10;;;1.80;;
52878;SDS011;38747;53.140;6.498;2023-01-13T09:37:16;21.63;;;1.80;;
52878;SDS011;38747;53.140;6.498;2023-01-13T09:39:42;15.02;;;1.92;;
52878;SDS011;38747;53.140;6.498;2023-01-13T09:42:13;18.40;;;2.33;;
52878;SDS011;38747;53.140;6.498;2023-01-13T09:45:12;24.75;;;2.83;;
52878;SDS011;38747;53.140;6.498;2023-01-13T09:47:43;18.85;;;2.30;;
52878;SDS011;38747;53.140;6.498;2023-01-13T09:50:23;22.10;;;2.28;;
52878;SDS011;38747;53.140;6.498;2023-01-13T09:52:55;18.88;;;3.00;;
52878;SDS011;38747;53.140;6.498;2023-01-13T09:55:24;21.53;;;2.97;;
52878;SDS011;38747;53.140;6.498;2023-01-13T09:57:56;25.17;;;2.45;;
52878;SDS011;38747;53.140;6.498;2023-01-13T10:00:23;14.93;;;2.00;;
52878;SDS011;38747;53.140;6.498;2023-01-13T10:05:41;26.63;;;2.92;;
52878;SDS011;38747;53.140;6.498;2023-01-13T10:08:15;12.35;;;1.85;;
52878;SDS011;38747;53.140;6.498;2023-01-13T10:10:46;17.63;;;1.75;;
52878;SDS011;38747;53.140;6.498;2023-01-13T10:13:19;18.73;;;2.28;;
52878;SDS011;38747;53.140;6.498;2023-01-13T10:15:53;16.70;;;2.03;;
52878;SDS011;38747;53.140;6.498;2023-01-13T10:18:21;18.08;;;2.15;;
52878;SDS011;38747;53.140;6.498;2023-01-13T10:24:10;16.95;;;1.67;;
52878;SDS011;38747;53.140;6.498;2023-01-13T10:27:06;16.65;;;2.42;;
52878;SDS011;38747;53.140;6.498;2023-01-13T10:29:51;18.10;;;2.03;;
52878;SDS011;38747;53.140;6.498;2023-01-13T10:32:17;16.98;;;2.10;;
52878;SDS011;38747;53.140;6.498;2023-01-13T10:34:50;14.50;;;1.80;;
52878;SDS011;38747;53.140;6.498;2023-01-13T10:37:25;11.98;;;2.22;;
52878;SDS011;38747;53.140;6.498;2023-01-13T10:39:56;17.20;;;2.10;;
52878;SDS011;38747;53.140;6.498;2023-01-13T10:42:25;20.05;;;2.47;;
52878;SDS011;38747;53.140;6.498;2023-01-13T10:45:00;12.20;;;2.10;;
52878;SDS011;38747;53.140;6.498;2023-01-13T10:47:28;19.92;;;2.70;;
52878;SDS011;38747;53.140;6.498;2023-01-13T10:50:17;17.00;;;2.20;;
52878;SDS011;38747;53.140;6.498;2023-01-13T10:52:54;22.02;;;2.20;;
52878;SDS011;38747;53.140;6.498;2023-01-13T10:55:28;15.57;;;1.90;;
52878;SDS011;38747;53.140;6.498;2023-01-13T10:58:15;15.50;;;1.90;;
52878;SDS011;38747;53.140;6.498;2023-01-13T11:00:42;15.32;;;2.20;;
52878;SDS011;38747;53.140;6.498;2023-01-13T11:03:16;16.08;;;2.05;;
52878;SDS011;38747;53.140;6.498;2023-01-13T11:05:51;18.65;;;2.28;;
52878;SDS011;38747;53.140;6.498;2023-01-13T11:08:23;16.30;;;2.05;;
52878;SDS011;38747;53.140;6.498;2023-01-13T11:11:07;19.33;;;2.73;;
52878;SDS011;38747;53.140;6.498;2023-01-13T11:13:52;18.35;;;2.95;;
52878;SDS011;38747;53.140;6.498;2023-01-13T11:16:40;17.05;;;2.00;;
52878;SDS011;38747;53.140;6.498;2023-01-13T11:19:10;16.70;;;2.00;;
52878;SDS011;38747;53.140;6.498;2023-01-13T11:26:55;11.48;;;1.50;;
52878;SDS011;38747;53.140;6.498;2023-01-13T11:29:35;13.85;;;2.00;;
52878;SDS011;38747;53.140;6.498;2023-01-13T11:32:03;11.65;;;1.77;;
52878;SDS011;38747;53.140;6.498;2023-01-13T11:34:40;14.35;;;1.67;;
52878;SDS011;38747;53.140;6.498;2023-01-13T11:42:45;19.45;;;2.20;;
52878;SDS011;38747;53.140;6.498;2023-01-13T11:48:01;11.82;;;1.70;;
52878;SDS011;38747;53.140;6.498;2023-01-13T12:04:47;15.03;;;2.03;;
52878;SDS011;38747;53.140;6.498;2023-01-13T12:10:14;14.63;;;1.70;;
52878;SDS011;38747;53.140;6.498;2023-01-13T12:13:09;12.00;;;1.63;;
52878;SDS011;38747;53.140;6.498;2023-01-13T12:21:23;14.23;;;1.90;;
52878;SDS011;38747;53.140;6.498;2023-01-13T12:26:40;13.95;;;1.60;;
52878;SDS011;38747;53.140;6.498;2023-01-13T12:29:17;10.20;;;1.67;;
52878;SDS011;38747;53.140;6.498;2023-01-13T12:31:45;15.20;;;1.80;;
52878;SDS011;38747;53.140;6.498;2023-01-13T12:37:20;13.82;;;1.77;;
52878;SDS011;38747;53.140;6.498;2023-01-13T12:45:51;11.50;;;1.50;;
52878;SDS011;38747;53.140;6.498;2023-01-13T12:57:25;15.00;;;1.65;;
52878;SDS011;38747;53.140;6.498;2023-01-13T13:02:35;11.90;;;1.58;;
52878;SDS011;38747;53.140;6.498;2023-01-13T13:07:50;11.13;;;1.50;;
52878;SDS011;38747;53.140;6.498;2023-01-13T13:10:29;13.45;;;1.40;;
52878;SDS011;38747;53.140;6.498;2023-01-13T13:13:00;11.02;;;1.50;;
52878;SDS011;38747;53.140;6.498;2023-01-13T13:15:45;9.40;;;1.40;;
52878;SDS011;38747;53.140;6.498;2023-01-13T13:26:16;10.18;;;1.38;;
52878;SDS011;38747;53.140;6.498;2023-01-13T13:31:54;10.93;;;1.35;;
52878;SDS011;38747;53.140;6.498;2023-01-13T13:34:41;9.20;;;1.50;;
52878;SDS011;38747;53.140;6.498;2023-01-13T13:37:24;8.38;;;1.38;;
52878;SDS011;38747;53.140;6.498;2023-01-13T13:40:31;10.15;;;1.50;;
52878;SDS011;38747;53.140;6.498;2023-01-13T13:43:20;7.93;;;1.10;;
52878;SDS011;38747;53.140;6.498;2023-01-13T13:46:20;9.52;;;1.23;;
52878;SDS011;38747;53.140;6.498;2023-01-13T13:49:10;9.87;;;1.67;;
52878;SDS011;38747;53.140;6.498;2023-01-13T13:52:02;9.88;;;1.38;;
52878;SDS011;38747;53.140;6.498;2023-01-13T13:54:45;8.90;;;1.27;;
52878;SDS011;38747;53.140;6.498;2023-01-13T13:57:20;10.48;;;1.10;;
52878;SDS011;38747;53.140;6.498;2023-01-13T13:59:57;9.38;;;1.33;;
52878;SDS011;38747;53.140;6.498;2023-01-13T14:02:27;5.97;;;1.17;;
52878;SDS011;38747;53.140;6.498;2023-01-13T14:07:43;10.32;;;1.67;;
52878;SDS011;38747;53.140;6.498;2023-01-13T14:10:13;10.27;;;1.30;;
52878;SDS011;38747;53.140;6.498;2023-01-13T14:12:41;8.73;;;1.55;;
52878;SDS011;38747;53.140;6.498;2023-01-13T14:15:22;8.10;;;1.03;;
52878;SDS011;38747;53.140;6.498;2023-01-13T14:17:51;8.77;;;1.38;;
52878;SDS011;38747;53.140;6.498;2023-01-13T14:20:17;10.97;;;1.27;;
52878;SDS011;38747;53.140;6.498;2023-01-13T14:22:47;9.10;;;1.38;;
52878;SDS011;38747;53.140;6.498;2023-01-13T14:25:30;10.50;;;1.20;;
52878;SDS011;38747;53.140;6.498;2023-01-13T14:27:57;9.77;;;1.15;;
52878;SDS011;38747;53.140;6.498;2023-01-13T14:30:34;10.52;;;1.60;;
52878;SDS011;38747;53.140;6.498;2023-01-13T14:33:00;11.43;;;1.20;;
52878;SDS011;38747;53.140;6.498;2023-01-13T14:35:26;12.75;;;1.40;;
52878;SDS011;38747;53.140;6.498;2023-01-13T14:37:52;6.18;;;1.08;;
52878;SDS011;38747;53.140;6.498;2023-01-13T14:43:01;9.00;;;1.45;;
52878;SDS011;38747;53.140;6.498;2023-01-13T14:45:28;13.88;;;1.60;;
52878;SDS011;38747;53.140;6.498;2023-01-13T14:47:57;11.73;;;1.70;;
52878;SDS011;38747;53.140;6.498;2023-01-13T14:50:25;10.80;;;1.33;;
52878;SDS011;38747;53.140;6.498;2023-01-13T14:52:56;7.60;;;1.43;;
52878;SDS011;38747;53.140;6.498;2023-01-13T14:55:28;6.97;;;1.17;;
52878;SDS011;38747;53.140;6.498;2023-01-13T15:00:42;9.18;;;1.20;;
52878;SDS011;38747;53.140;6.498;2023-01-13T15:03:12;11.30;;;1.50;;
52878;SDS011;38747;53.140;6.498;2023-01-13T15:05:39;10.98;;;1.20;;
52878;SDS011;38747;53.140;6.498;2023-01-13T15:10:48;11.88;;;1.30;;
52878;SDS011;38747;53.140;6.498;2023-01-13T15:13:22;10.07;;;1.30;;
52878;SDS011;38747;53.140;6.498;2023-01-13T15:15:52;8.37;;;1.43;;
52878;SDS011;38747;53.140;6.498;2023-01-13T15:18:23;7.57;;;0.90;;
52878;SDS011;38747;53.140;6.498;2023-01-13T15:20:49;9.75;;;1.38;;
52878;SDS011;38747;53.140;6.498;2023-01-13T15:23:18;6.97;;;1.17;;
52878;SDS011;38747;53.140;6.498;2023-01-13T15:25:44;8.93;;;1.20;;
52878;SDS011;38747;53.140;6.498;2023-01-13T15:28:18;12.25;;;1.52;;
52878;SDS011;38747;53.140;6.498;2023-01-13T15:30:46;10.02;;;1.35;;
52878;SDS011;38747;53.140;6.498;2023-01-13T15:33:13;11.18;;;1.60;;
52878;SDS011;38747;53.140;6.498;2023-01-13T15:35:41;12.77;;;1.73;;
52878;SDS011;38747;53.140;6.498;2023-01-13T15:38:09;9.60;;;1.40;;
52878;SDS011;38747;53.140;6.498;2023-01-13T15:40:37;11.13;;;2.13;;
52878;SDS011;38747;53.140;6.498;2023-01-13T15:43:02;11.27;;;1.27;;
52878;SDS011;38747;53.140;6.498;2023-01-13T15:45:46;13.30;;;1.97;;
52878;SDS011;38747;53.140;6.498;2023-01-13T15:48:31;9.93;;;1.30;;
52878;SDS011;38747;53.140;6.498;2023-01-13T15:50:57;9.93;;;1.38;;
52878;SDS011;38747;53.140;6.498;2023-01-13T15:53:23;8.85;;;1.20;;
52878;SDS011;38747;53.140;6.498;2023-01-13T15:55:50;12.73;;;1.60;;
52878;SDS011;38747;53.140;6.498;2023-01-13T15:58:19;7.53;;;1.35;;
52878;SDS011;38747;53.140;6.498;2023-01-13T16:00:48;10.90;;;1.45;;
52878;SDS011;38747;53.140;6.498;2023-01-13T16:03:14;9.90;;;1.80;;
52878;SDS011;38747;53.140;6.498;2023-01-13T16:05:40;13.18;;;1.63;;
52878;SDS011;38747;53.140;6.498;2023-01-13T16:08:14;14.38;;;1.70;;
52878;SDS011;38747;53.140;6.498;2023-01-13T16:10:41;10.40;;;1.58;;
52878;SDS011;38747;53.140;6.498;2023-01-13T16:13:08;12.63;;;1.60;;
52878;SDS011;38747;53.140;6.498;2023-01-13T16:15:41;8.68;;;1.60;;
52878;SDS011;38747;53.140;6.498;2023-01-13T16:18:09;10.23;;;1.35;;
52878;SDS011;38747;53.140;6.498;2023-01-13T16:20:41;13.05;;;1.85;;
52878;SDS011;38747;53.140;6.498;2023-01-13T16:23:07;7.72;;;1.45;;
52878;SDS011;38747;53.140;6.498;2023-01-13T16:25:33;9.73;;;2.00;;
52878;SDS011;38747;53.140;6.498;2023-01-13T16:27:59;11.77;;;2.35;;
52878;SDS011;38747;53.140;6.498;2023-01-13T16:30:32;10.50;;;1.50;;
52878;SDS011;38747;53.140;6.498;2023-01-13T16:32:59;10.00;;;1.70;;
52878;SDS011;38747;53.140;6.498;2023-01-13T16:35:24;9.63;;;1.83;;
52878;SDS011;38747;53.140;6.498;2023-01-13T16:37:51;13.40;;;1.80;;
52878;SDS011;38747;53.140;6.498;2023-01-13T16:40:36;12.57;;;2.08;;
52878;SDS011;38747;53.140;6.498;2023-01-13T16:43:02;11.55;;;1.80;;
52878;SDS011;38747;53.140;6.498;2023-01-13T16:45:28;13.02;;;2.72;;
52878;SDS011;38747;53.140;6.498;2023-01-13T16:47:55;10.73;;;1.70;;
52878;SDS011;38747;53.140;6.498;2023-01-13T16:50:36;16.03;;;1.80;;
52878;SDS011;38747;53.140;6.498;2023-01-13T16:53:05;11.07;;;1.98;;
52878;SDS011;38747;53.140;6.498;2023-01-13T16:55:34;12.80;;;1.80;;
52878;SDS011;38747;53.140;6.498;2023-01-13T16:58:00;12.95;;;1.65;;
52878;SDS011;38747;53.140;6.498;2023-01-13T17:00:26;12.40;;;1.47;;
52878;SDS011;38747;53.140;6.498;2023-01-13T17:02:52;11.13;;;1.90;;